sensor_id;sensor_type;location;lat;lon;timestamp;P1;durP1;ratioP1;P2;durP2;ratioP2
67571;SDS011;54397;47.506;19.158;2023-10-08T00:00:11;10.88;;;3.17;;
67571;SDS011;54397;47.506;19.158;2023-10-08T00:03:54;4.13;;;2.53;;
67571;SDS011;54397;47.506;19.158;2023-10-08T00:07:21;4.63;;;3.00;;
67571;SDS011;54397;47.506;19.158;2023-10-08T00:10:45;7.38;;;2.70;;
67571;SDS011;54397;47.506;19.158;2023-10-08T00:14:07;4.57;;;2.60;;
67571;SDS011;54397;47.506;19.158;2023-10-08T00:17:32;6.68;;;2.67;;
67571;SDS011;54397;47.506;19.158;2023-10-08T00:20:54;5.82;;;2.90;;
67571;SDS011;54397;47.506;19.158;2023-10-08T00:24:45;6.10;;;3.20;;
67571;SDS011;54397;47.506;19.158;2023-10-08T00:28:08;7.75;;;3.10;;
67571;SDS011;54397;47.506;19.158;2023-10-08T00:31:33;6.95;;;2.88;;
67571;SDS011;54397;47.506;19.158;2023-10-08T00:35:06;4.50;;;2.90;;
67571;SDS011;54397;47.506;19.158;2023-10-08T00:38:33;10.55;;;2.80;;
67571;SDS011;54397;47.506;19.158;2023-10-08T00:41:58;7.97;;;3.28;;
67571;SDS011;54397;47.506;19.158;2023-10-08T00:45:21;4.57;;;2.67;;
67571;SDS011;54397;47.506;19.158;2023-10-08T00:48:48;7.88;;;2.67;;
67571;SDS011;54397;47.506;19.158;2023-10-08T00:52:16;7.00;;;3.00;;
67571;SDS011;54397;47.506;19.158;2023-10-08T00:55:38;6.72;;;3.20;;
67571;SDS011;54397;47.506;19.158;2023-10-08T00:59:01;5.88;;;2.70;;
67571;SDS011;54397;47.506;19.158;2023-10-08T01:02:28;5.22;;;2.90;;
67571;SDS011;54397;47.506;19.158;2023-10-08T01:06:04;5.35;;;2.78;;
67571;SDS011;54397;47.506;19.158;2023-10-08T01:09:31;5.43;;;2.55;;
67571;SDS011;54397;47.506;19.158;2023-10-08T01:12:57;5.80;;;2.65;;
67571;SDS011;54397;47.506;19.158;2023-10-08T01:16:42;9.70;;;2.90;;
67571;SDS011;54397;47.506;19.158;2023-10-08T01:20:08;6.72;;;2.42;;
67571;SDS011;54397;47.506;19.158;2023-10-08T01:23:53;9.90;;;2.80;;
67571;SDS011;54397;47.506;19.158;2023-10-08T01:27:16;7.20;;;3.00;;
67571;SDS011;54397;47.506;19.158;2023-10-08T01:30:45;5.10;;;2.28;;
67571;SDS011;54397;47.506;19.158;2023-10-08T01:34:15;7.97;;;2.90;;
67571;SDS011;54397;47.506;19.158;2023-10-08T01:37:41;7.35;;;2.72;;
67571;SDS011;54397;47.506;19.158;2023-10-08T01:41:05;4.82;;;2.58;;
67571;SDS011;54397;47.506;19.158;2023-10-08T01:44:40;5.10;;;2.75;;
67571;SDS011;54397;47.506;19.158;2023-10-08T01:48:01;5.45;;;2.70;;
67571;SDS011;54397;47.506;19.158;2023-10-08T01:51:23;7.93;;;2.65;;
67571;SDS011;54397;47.506;19.158;2023-10-08T01:54:57;7.80;;;3.08;;
67571;SDS011;54397;47.506;19.158;2023-10-08T01:58:21;4.60;;;2.30;;
67571;SDS011;54397;47.506;19.158;2023-10-08T02:01:50;6.97;;;3.00;;
67571;SDS011;54397;47.506;19.158;2023-10-08T02:05:17;6.15;;;3.20;;
67571;SDS011;54397;47.506;19.158;2023-10-08T02:08:40;6.82;;;2.55;;
67571;SDS011;54397;47.506;19.158;2023-10-08T02:12:02;7.82;;;2.70;;
67571;SDS011;54397;47.506;19.158;2023-10-08T02:15:26;6.13;;;2.97;;
67571;SDS011;54397;47.506;19.158;2023-10-08T02:18:49;7.10;;;2.85;;
67571;SDS011;54397;47.506;19.158;2023-10-08T02:22:13;6.32;;;3.08;;
67571;SDS011;54397;47.506;19.158;2023-10-08T02:25:40;11.88;;;2.88;;
67571;SDS011;54397;47.506;19.158;2023-10-08T02:29:04;8.93;;;2.83;;
67571;SDS011;54397;47.506;19.158;2023-10-08T02:32:32;4.90;;;2.70;;
67571;SDS011;54397;47.506;19.158;2023-10-08T02:35:58;7.40;;;3.20;;
67571;SDS011;54397;47.506;19.158;2023-10-08T02:39:25;7.47;;;2.72;;
67571;SDS011;54397;47.506;19.158;2023-10-08T02:42:48;5.05;;;2.92;;
67571;SDS011;54397;47.506;19.158;2023-10-08T02:46:09;6.25;;;2.70;;
67571;SDS011;54397;47.506;19.158;2023-10-08T02:49:39;6.35;;;2.90;;
67571;SDS011;54397;47.506;19.158;2023-10-08T02:53:03;6.03;;;2.95;;
67571;SDS011;54397;47.506;19.158;2023-10-08T02:56:36;4.55;;;2.60;;
67571;SDS011;54397;47.506;19.158;2023-10-08T03:00:01;6.53;;;2.75;;
67571;SDS011;54397;47.506;19.158;2023-10-08T03:03:33;9.10;;;3.30;;
67571;SDS011;54397;47.506;19.158;2023-10-08T03:06:55;5.93;;;2.88;;
67571;SDS011;54397;47.506;19.158;2023-10-08T03:10:19;6.35;;;2.80;;
67571;SDS011;54397;47.506;19.158;2023-10-08T03:13:40;7.35;;;3.38;;
67571;SDS011;54397;47.506;19.158;2023-10-08T03:17:07;7.97;;;3.30;;
67571;SDS011;54397;47.506;19.158;2023-10-08T03:20:37;10.73;;;3.03;;
67571;SDS011;54397;47.506;19.158;2023-10-08T03:23:59;8.18;;;3.00;;
67571;SDS011;54397;47.506;19.158;2023-10-08T03:27:28;9.23;;;2.72;;
67571;SDS011;54397;47.506;19.158;2023-10-08T03:30:49;6.32;;;3.10;;
67571;SDS011;54397;47.506;19.158;2023-10-08T03:34:24;4.45;;;2.25;;
67571;SDS011;54397;47.506;19.158;2023-10-08T03:37:55;9.07;;;2.83;;
67571;SDS011;54397;47.506;19.158;2023-10-08T03:41:37;5.65;;;3.00;;
67571;SDS011;54397;47.506;19.158;2023-10-08T03:45:01;6.68;;;2.72;;
67571;SDS011;54397;47.506;19.158;2023-10-08T03:48:33;6.82;;;2.65;;
67571;SDS011;54397;47.506;19.158;2023-10-08T03:51:58;9.88;;;2.85;;
67571;SDS011;54397;47.506;19.158;2023-10-08T03:55:19;5.25;;;3.03;;
67571;SDS011;54397;47.506;19.158;2023-10-08T03:58:41;6.35;;;2.75;;
67571;SDS011;54397;47.506;19.158;2023-10-08T04:02:08;4.18;;;2.75;;
67571;SDS011;54397;47.506;19.158;2023-10-08T04:05:50;4.28;;;2.40;;
67571;SDS011;54397;47.506;19.158;2023-10-08T04:09:34;6.50;;;3.40;;
67571;SDS011;54397;47.506;19.158;2023-10-08T04:12:58;5.05;;;2.45;;
67571;SDS011;54397;47.506;19.158;2023-10-08T04:16:22;5.25;;;2.80;;
67571;SDS011;54397;47.506;19.158;2023-10-08T04:19:51;4.93;;;2.88;;
67571;SDS011;54397;47.506;19.158;2023-10-08T04:23:18;5.75;;;2.30;;
67571;SDS011;54397;47.506;19.158;2023-10-08T04:26:45;6.40;;;2.55;;
67571;SDS011;54397;47.506;19.158;2023-10-08T04:30:07;5.80;;;2.80;;
67571;SDS011;54397;47.506;19.158;2023-10-08T04:33:32;6.50;;;2.60;;
67571;SDS011;54397;47.506;19.158;2023-10-08T04:36:56;7.20;;;3.08;;
67571;SDS011;54397;47.506;19.158;2023-10-08T04:40:22;8.35;;;2.83;;
67571;SDS011;54397;47.506;19.158;2023-10-08T04:43:45;7.20;;;2.65;;
67571;SDS011;54397;47.506;19.158;2023-10-08T04:47:13;5.45;;;2.55;;
67571;SDS011;54397;47.506;19.158;2023-10-08T04:50:54;6.70;;;2.88;;
67571;SDS011;54397;47.506;19.158;2023-10-08T04:54:23;5.68;;;2.50;;
67571;SDS011;54397;47.506;19.158;2023-10-08T04:57:50;7.38;;;2.85;;
67571;SDS011;54397;47.506;19.158;2023-10-08T05:01:13;6.57;;;2.60;;
67571;SDS011;54397;47.506;19.158;2023-10-08T05:04:39;5.47;;;2.50;;
67571;SDS011;54397;47.506;19.158;2023-10-08T05:08:17;8.10;;;2.60;;
67571;SDS011;54397;47.506;19.158;2023-10-08T05:11:50;4.70;;;2.38;;
67571;SDS011;54397;47.506;19.158;2023-10-08T05:15:13;5.70;;;2.22;;
67571;SDS011;54397;47.506;19.158;2023-10-08T05:18:35;5.25;;;2.40;;
67571;SDS011;54397;47.506;19.158;2023-10-08T05:22:19;7.97;;;2.80;;
67571;SDS011;54397;47.506;19.158;2023-10-08T05:25:42;8.57;;;2.63;;
67571;SDS011;54397;47.506;19.158;2023-10-08T05:29:19;15.27;;;2.92;;
67571;SDS011;54397;47.506;19.158;2023-10-08T05:33:01;11.15;;;2.92;;
67571;SDS011;54397;47.506;19.158;2023-10-08T05:36:29;8.82;;;3.05;;
67571;SDS011;54397;47.506;19.158;2023-10-08T05:40:11;8.70;;;2.90;;
67571;SDS011;54397;47.506;19.158;2023-10-08T05:43:55;5.32;;;2.75;;
67571;SDS011;54397;47.506;19.158;2023-10-08T05:47:36;7.22;;;2.85;;
67571;SDS011;54397;47.506;19.158;2023-10-08T05:51:05;5.15;;;2.70;;
67571;SDS011;54397;47.506;19.158;2023-10-08T05:54:43;4.53;;;2.42;;
67571;SDS011;54397;47.506;19.158;2023-10-08T05:58:24;10.75;;;2.92;;
67571;SDS011;54397;47.506;19.158;2023-10-08T06:01:56;6.75;;;3.00;;
67571;SDS011;54397;47.506;19.158;2023-10-08T06:05:27;9.23;;;2.70;;
67571;SDS011;54397;47.506;19.158;2023-10-08T06:08:54;9.70;;;2.78;;
67571;SDS011;54397;47.506;19.158;2023-10-08T06:12:31;9.98;;;3.13;;
67571;SDS011;54397;47.506;19.158;2023-10-08T06:16:06;7.55;;;2.20;;
67571;SDS011;54397;47.506;19.158;2023-10-08T06:19:30;10.20;;;3.03;;
67571;SDS011;54397;47.506;19.158;2023-10-08T06:22:52;8.80;;;2.92;;
67571;SDS011;54397;47.506;19.158;2023-10-08T06:26:16;6.22;;;3.60;;
67571;SDS011;54397;47.506;19.158;2023-10-08T06:29:45;9.32;;;2.83;;
67571;SDS011;54397;47.506;19.158;2023-10-08T06:33:07;5.90;;;2.60;;
67571;SDS011;54397;47.506;19.158;2023-10-08T06:36:33;5.68;;;2.33;;
67571;SDS011;54397;47.506;19.158;2023-10-08T06:39:55;9.18;;;2.85;;
67571;SDS011;54397;47.506;19.158;2023-10-08T06:43:21;4.72;;;3.15;;
67571;SDS011;54397;47.506;19.158;2023-10-08T06:46:43;9.43;;;3.10;;
67571;SDS011;54397;47.506;19.158;2023-10-08T06:50:05;10.48;;;2.92;;
67571;SDS011;54397;47.506;19.158;2023-10-08T06:53:38;6.80;;;3.05;;
67571;SDS011;54397;47.506;19.158;2023-10-08T06:57:11;11.52;;;4.03;;
67571;SDS011;54397;47.506;19.158;2023-10-08T07:00:38;13.45;;;2.83;;
67571;SDS011;54397;47.506;19.158;2023-10-08T07:04:08;12.85;;;3.40;;
67571;SDS011;54397;47.506;19.158;2023-10-08T07:07:34;11.00;;;3.22;;
67571;SDS011;54397;47.506;19.158;2023-10-08T07:11:01;8.77;;;2.70;;
67571;SDS011;54397;47.506;19.158;2023-10-08T07:14:33;7.95;;;3.00;;
67571;SDS011;54397;47.506;19.158;2023-10-08T07:17:57;9.43;;;2.67;;
67571;SDS011;54397;47.506;19.158;2023-10-08T07:21:29;6.57;;;3.00;;
67571;SDS011;54397;47.506;19.158;2023-10-08T07:25:06;5.57;;;2.65;;
67571;SDS011;54397;47.506;19.158;2023-10-08T07:28:33;9.55;;;3.17;;
67571;SDS011;54397;47.506;19.158;2023-10-08T07:31:57;6.97;;;2.53;;
67571;SDS011;54397;47.506;19.158;2023-10-08T07:35:20;8.30;;;2.53;;
67571;SDS011;54397;47.506;19.158;2023-10-08T07:38:41;8.25;;;2.50;;
67571;SDS011;54397;47.506;19.158;2023-10-08T07:42:04;8.48;;;3.28;;
67571;SDS011;54397;47.506;19.158;2023-10-08T07:45:27;11.38;;;3.28;;
67571;SDS011;54397;47.506;19.158;2023-10-08T07:48:48;5.53;;;2.80;;
67571;SDS011;54397;47.506;19.158;2023-10-08T07:52:11;5.40;;;3.03;;
67571;SDS011;54397;47.506;19.158;2023-10-08T07:55:38;7.95;;;3.03;;
67571;SDS011;54397;47.506;19.158;2023-10-08T07:59:02;9.57;;;3.05;;
67571;SDS011;54397;47.506;19.158;2023-10-08T08:02:29;8.00;;;3.10;;
67571;SDS011;54397;47.506;19.158;2023-10-08T08:05:54;11.23;;;3.20;;
67571;SDS011;54397;47.506;19.158;2023-10-08T08:09:19;9.20;;;3.38;;
67571;SDS011;54397;47.506;19.158;2023-10-08T08:12:41;8.73;;;2.95;;
67571;SDS011;54397;47.506;19.158;2023-10-08T08:16:06;6.50;;;2.63;;
67571;SDS011;54397;47.506;19.158;2023-10-08T08:19:37;5.80;;;2.53;;
67571;SDS011;54397;47.506;19.158;2023-10-08T08:22:59;5.82;;;2.70;;
67571;SDS011;54397;47.506;19.158;2023-10-08T08:26:28;6.85;;;2.83;;
67571;SDS011;54397;47.506;19.158;2023-10-08T08:29:51;6.15;;;2.95;;
67571;SDS011;54397;47.506;19.158;2023-10-08T08:33:17;9.35;;;3.10;;
67571;SDS011;54397;47.506;19.158;2023-10-08T08:37:05;4.60;;;2.67;;
67571;SDS011;54397;47.506;19.158;2023-10-08T08:40:29;11.05;;;3.08;;
67571;SDS011;54397;47.506;19.158;2023-10-08T08:43:52;18.05;;;3.53;;
67571;SDS011;54397;47.506;19.158;2023-10-08T08:47:20;10.57;;;3.40;;
67571;SDS011;54397;47.506;19.158;2023-10-08T08:50:46;8.77;;;2.97;;
67571;SDS011;54397;47.506;19.158;2023-10-08T08:54:09;7.78;;;2.92;;
67571;SDS011;54397;47.506;19.158;2023-10-08T08:57:32;10.50;;;3.30;;
67571;SDS011;54397;47.506;19.158;2023-10-08T09:00:57;10.90;;;3.17;;
67571;SDS011;54397;47.506;19.158;2023-10-08T09:04:27;11.02;;;2.92;;
67571;SDS011;54397;47.506;19.158;2023-10-08T09:07:55;11.07;;;3.28;;
67571;SDS011;54397;47.506;19.158;2023-10-08T09:11:25;16.08;;;2.63;;
67571;SDS011;54397;47.506;19.158;2023-10-08T09:14:47;14.18;;;3.60;;
67571;SDS011;54397;47.506;19.158;2023-10-08T09:18:09;7.55;;;2.92;;
67571;SDS011;54397;47.506;19.158;2023-10-08T09:21:31;8.80;;;2.67;;
67571;SDS011;54397;47.506;19.158;2023-10-08T09:24:56;9.27;;;2.88;;
67571;SDS011;54397;47.506;19.158;2023-10-08T09:28:21;5.82;;;2.38;;
67571;SDS011;54397;47.506;19.158;2023-10-08T09:31:53;8.88;;;2.90;;
67571;SDS011;54397;47.506;19.158;2023-10-08T09:35:18;4.93;;;2.42;;
67571;SDS011;54397;47.506;19.158;2023-10-08T09:38:40;8.02;;;2.88;;
67571;SDS011;54397;47.506;19.158;2023-10-08T09:42:05;8.88;;;2.60;;
67571;SDS011;54397;47.506;19.158;2023-10-08T09:45:33;8.43;;;2.38;;
67571;SDS011;54397;47.506;19.158;2023-10-08T09:48:58;5.03;;;2.30;;
67571;SDS011;54397;47.506;19.158;2023-10-08T09:52:22;10.00;;;2.78;;
67571;SDS011;54397;47.506;19.158;2023-10-08T09:59:17;5.18;;;2.63;;
67571;SDS011;54397;47.506;19.158;2023-10-08T10:02:41;5.38;;;2.67;;
67571;SDS011;54397;47.506;19.158;2023-10-08T10:06:11;10.95;;;3.60;;
67571;SDS011;54397;47.506;19.158;2023-10-08T10:09:36;9.23;;;2.75;;
67571;SDS011;54397;47.506;19.158;2023-10-08T10:13:04;13.53;;;2.90;;
67571;SDS011;54397;47.506;19.158;2023-10-08T10:16:29;8.20;;;1.92;;
67571;SDS011;54397;47.506;19.158;2023-10-08T10:19:59;5.82;;;1.60;;
67571;SDS011;54397;47.506;19.158;2023-10-08T10:27:19;6.38;;;1.45;;
67571;SDS011;54397;47.506;19.158;2023-10-08T10:30:44;3.00;;;1.60;;
67571;SDS011;54397;47.506;19.158;2023-10-08T10:34:06;11.73;;;1.80;;
67571;SDS011;54397;47.506;19.158;2023-10-08T10:37:29;3.45;;;1.58;;
67571;SDS011;54397;47.506;19.158;2023-10-08T10:41:03;3.28;;;1.60;;
67571;SDS011;54397;47.506;19.158;2023-10-08T10:47:58;5.53;;;2.05;;
67571;SDS011;54397;47.506;19.158;2023-10-08T10:51:32;2.65;;;1.63;;
67571;SDS011;54397;47.506;19.158;2023-10-08T10:55:13;3.15;;;1.10;;
67571;SDS011;54397;47.506;19.158;2023-10-08T10:58:41;1.10;;;1.00;;
67571;SDS011;54397;47.506;19.158;2023-10-08T11:02:06;1.77;;;0.90;;
67571;SDS011;54397;47.506;19.158;2023-10-08T11:05:29;1.17;;;0.60;;
67571;SDS011;54397;47.506;19.158;2023-10-08T11:09:01;1.00;;;0.63;;
67571;SDS011;54397;47.506;19.158;2023-10-08T11:12:23;1.25;;;1.00;;
67571;SDS011;54397;47.506;19.158;2023-10-08T11:16:04;1.95;;;1.00;;
67571;SDS011;54397;47.506;19.158;2023-10-08T11:19:29;2.42;;;0.85;;
67571;SDS011;54397;47.506;19.158;2023-10-08T11:22:53;0.98;;;0.40;;
67571;SDS011;54397;47.506;19.158;2023-10-08T11:26:15;0.52;;;0.52;;
67571;SDS011;54397;47.506;19.158;2023-10-08T11:29:40;1.17;;;0.40;;
67571;SDS011;54397;47.506;19.158;2023-10-08T11:33:07;0.52;;;0.50;;
67571;SDS011;54397;47.506;19.158;2023-10-08T11:36:37;1.10;;;0.90;;
67571;SDS011;54397;47.506;19.158;2023-10-08T11:40:25;0.47;;;0.43;;
67571;SDS011;54397;47.506;19.158;2023-10-08T11:43:51;1.45;;;0.50;;
67571;SDS011;54397;47.506;19.158;2023-10-08T11:47:25;1.65;;;0.40;;
67571;SDS011;54397;47.506;19.158;2023-10-08T11:50:52;0.65;;;0.30;;
67571;SDS011;54397;47.506;19.158;2023-10-08T11:54:16;4.70;;;0.60;;
67571;SDS011;54397;47.506;19.158;2023-10-08T11:57:47;1.42;;;0.45;;
67571;SDS011;54397;47.506;19.158;2023-10-08T12:01:13;0.50;;;0.40;;
67571;SDS011;54397;47.506;19.158;2023-10-08T12:04:39;0.75;;;0.40;;
67571;SDS011;54397;47.506;19.158;2023-10-08T12:08:01;0.28;;;0.28;;
67571;SDS011;54397;47.506;19.158;2023-10-08T12:11:23;0.20;;;0.20;;
67571;SDS011;54397;47.506;19.158;2023-10-08T12:14:54;0.50;;;0.50;;
67571;SDS011;54397;47.506;19.158;2023-10-08T12:18:18;0.65;;;0.30;;
67571;SDS011;54397;47.506;19.158;2023-10-08T12:21:52;0.17;;;0.15;;
67571;SDS011;54397;47.506;19.158;2023-10-08T12:25:16;2.70;;;0.75;;
67571;SDS011;54397;47.506;19.158;2023-10-08T12:28:38;0.32;;;0.32;;
67571;SDS011;54397;47.506;19.158;2023-10-08T12:32:06;0.60;;;0.40;;
67571;SDS011;54397;47.506;19.158;2023-10-08T12:35:39;0.77;;;0.55;;
67571;SDS011;54397;47.506;19.158;2023-10-08T12:39:02;5.10;;;0.60;;
67571;SDS011;54397;47.506;19.158;2023-10-08T12:42:35;0.52;;;0.50;;
67571;SDS011;54397;47.506;19.158;2023-10-08T12:45:57;0.35;;;0.20;;
67571;SDS011;54397;47.506;19.158;2023-10-08T12:49:19;0.77;;;0.43;;
67571;SDS011;54397;47.506;19.158;2023-10-08T12:52:43;1.25;;;0.30;;
67571;SDS011;54397;47.506;19.158;2023-10-08T12:56:14;1.33;;;0.40;;
67571;SDS011;54397;47.506;19.158;2023-10-08T12:59:38;0.38;;;0.38;;
67571;SDS011;54397;47.506;19.158;2023-10-08T13:03:05;5.57;;;0.60;;
67571;SDS011;54397;47.506;19.158;2023-10-08T13:06:28;4.75;;;0.60;;
67571;SDS011;54397;47.506;19.158;2023-10-08T13:09:50;2.40;;;1.85;;
67571;SDS011;54397;47.506;19.158;2023-10-08T13:13:14;6.85;;;2.20;;
67571;SDS011;54397;47.506;19.158;2023-10-08T13:16:36;1.88;;;0.57;;
67571;SDS011;54397;47.506;19.158;2023-10-08T13:20:01;3.40;;;0.63;;
67571;SDS011;54397;47.506;19.158;2023-10-08T13:23:23;2.20;;;0.50;;
67571;SDS011;54397;47.506;19.158;2023-10-08T13:26:45;0.80;;;0.50;;
67571;SDS011;54397;47.506;19.158;2023-10-08T13:30:09;2.60;;;0.50;;
67571;SDS011;54397;47.506;19.158;2023-10-08T13:33:34;0.63;;;0.63;;
67571;SDS011;54397;47.506;19.158;2023-10-08T13:37:04;1.10;;;0.50;;
67571;SDS011;54397;47.506;19.158;2023-10-08T13:40:31;2.58;;;0.90;;
67571;SDS011;54397;47.506;19.158;2023-10-08T13:43:54;0.52;;;0.52;;
67571;SDS011;54397;47.506;19.158;2023-10-08T13:47:26;0.60;;;0.45;;
67571;SDS011;54397;47.506;19.158;2023-10-08T13:50:49;2.63;;;1.00;;
67571;SDS011;54397;47.506;19.158;2023-10-08T13:54:11;0.50;;;0.50;;
67571;SDS011;54397;47.506;19.158;2023-10-08T13:57:36;1.25;;;0.60;;
67571;SDS011;54397;47.506;19.158;2023-10-08T14:00:58;0.77;;;0.70;;
67571;SDS011;54397;47.506;19.158;2023-10-08T14:04:21;0.75;;;0.60;;
67571;SDS011;54397;47.506;19.158;2023-10-08T14:07:56;3.88;;;0.80;;
67571;SDS011;54397;47.506;19.158;2023-10-08T14:11:19;0.32;;;0.32;;
67571;SDS011;54397;47.506;19.158;2023-10-08T14:14:45;1.38;;;0.80;;
67571;SDS011;54397;47.506;19.158;2023-10-08T14:18:08;1.50;;;1.00;;
67571;SDS011;54397;47.506;19.158;2023-10-08T14:21:35;0.80;;;0.80;;
67571;SDS011;54397;47.506;19.158;2023-10-08T14:25:05;3.30;;;0.80;;
67571;SDS011;54397;47.506;19.158;2023-10-08T14:32:01;4.75;;;1.13;;
67571;SDS011;54397;47.506;19.158;2023-10-08T14:35:32;0.68;;;0.68;;
67571;SDS011;54397;47.506;19.158;2023-10-08T14:39:12;4.80;;;3.47;;
67571;SDS011;54397;47.506;19.158;2023-10-08T14:42:52;2.38;;;1.38;;
67571;SDS011;54397;47.506;19.158;2023-10-08T14:46:19;2.15;;;1.75;;
67571;SDS011;54397;47.506;19.158;2023-10-08T14:49:41;2.90;;;1.30;;
67571;SDS011;54397;47.506;19.158;2023-10-08T14:53:04;2.50;;;1.30;;
67571;SDS011;54397;47.506;19.158;2023-10-08T14:56:29;2.25;;;1.27;;
67571;SDS011;54397;47.506;19.158;2023-10-08T14:59:54;1.63;;;1.20;;
67571;SDS011;54397;47.506;19.158;2023-10-08T15:03:15;1.55;;;1.10;;
67571;SDS011;54397;47.506;19.158;2023-10-08T15:06:38;1.13;;;1.02;;
67571;SDS011;54397;47.506;19.158;2023-10-08T15:10:00;2.55;;;1.60;;
67571;SDS011;54397;47.506;19.158;2023-10-08T15:13:24;1.67;;;1.25;;
67571;SDS011;54397;47.506;19.158;2023-10-08T15:16:46;3.40;;;1.33;;
67571;SDS011;54397;47.506;19.158;2023-10-08T15:20:14;1.42;;;1.10;;
67571;SDS011;54397;47.506;19.158;2023-10-08T15:23:38;9.40;;;6.25;;
67571;SDS011;54397;47.506;19.158;2023-10-08T15:27:05;2.78;;;1.50;;
67571;SDS011;54397;47.506;19.158;2023-10-08T15:30:27;3.63;;;2.78;;
67571;SDS011;54397;47.506;19.158;2023-10-08T15:33:50;14.35;;;10.93;;
67571;SDS011;54397;47.506;19.158;2023-10-08T15:37:14;3.20;;;1.58;;
67571;SDS011;54397;47.506;19.158;2023-10-08T15:40:36;5.82;;;1.58;;
67571;SDS011;54397;47.506;19.158;2023-10-08T15:43:57;1.90;;;1.25;;
67571;SDS011;54397;47.506;19.158;2023-10-08T15:47:22;1.77;;;1.35;;
67571;SDS011;54397;47.506;19.158;2023-10-08T15:50:44;2.70;;;1.30;;
67571;SDS011;54397;47.506;19.158;2023-10-08T15:54:06;3.67;;;1.63;;
67571;SDS011;54397;47.506;19.158;2023-10-08T15:57:30;4.28;;;1.80;;
67571;SDS011;54397;47.506;19.158;2023-10-08T16:00:52;2.13;;;1.30;;
67571;SDS011;54397;47.506;19.158;2023-10-08T16:04:17;3.00;;;1.65;;
67571;SDS011;54397;47.506;19.158;2023-10-08T16:07:38;2.75;;;1.67;;
67571;SDS011;54397;47.506;19.158;2023-10-08T16:11:00;2.25;;;1.42;;
67571;SDS011;54397;47.506;19.158;2023-10-08T16:14:24;2.42;;;1.48;;
67571;SDS011;54397;47.506;19.158;2023-10-08T16:17:48;3.05;;;1.60;;
67571;SDS011;54397;47.506;19.158;2023-10-08T16:21:12;4.10;;;1.92;;
67571;SDS011;54397;47.506;19.158;2023-10-08T16:24:35;5.18;;;2.70;;
67571;SDS011;54397;47.506;19.158;2023-10-08T16:28:00;2.58;;;1.58;;
67571;SDS011;54397;47.506;19.158;2023-10-08T16:31:21;2.88;;;1.70;;
67571;SDS011;54397;47.506;19.158;2023-10-08T16:34:46;2.53;;;1.55;;
67571;SDS011;54397;47.506;19.158;2023-10-08T16:38:08;5.90;;;3.00;;
67571;SDS011;54397;47.506;19.158;2023-10-08T16:41:32;3.80;;;2.20;;
67571;SDS011;54397;47.506;19.158;2023-10-08T16:44:59;3.00;;;1.73;;
67571;SDS011;54397;47.506;19.158;2023-10-08T16:48:21;3.00;;;1.90;;
67571;SDS011;54397;47.506;19.158;2023-10-08T16:51:43;3.53;;;1.70;;
67571;SDS011;54397;47.506;19.158;2023-10-08T16:55:07;3.85;;;1.90;;
67571;SDS011;54397;47.506;19.158;2023-10-08T16:58:29;3.92;;;2.00;;
67571;SDS011;54397;47.506;19.158;2023-10-08T17:01:51;4.50;;;2.20;;
67571;SDS011;54397;47.506;19.158;2023-10-08T17:05:12;2.83;;;1.60;;
67571;SDS011;54397;47.506;19.158;2023-10-08T17:08:36;3.13;;;1.80;;
67571;SDS011;54397;47.506;19.158;2023-10-08T17:11:59;4.43;;;1.80;;
67571;SDS011;54397;47.506;19.158;2023-10-08T17:15:21;4.22;;;1.92;;
67571;SDS011;54397;47.506;19.158;2023-10-08T17:18:43;4.05;;;1.95;;
67571;SDS011;54397;47.506;19.158;2023-10-08T17:22:05;2.63;;;1.85;;
67571;SDS011;54397;47.506;19.158;2023-10-08T17:25:26;5.18;;;2.72;;
67571;SDS011;54397;47.506;19.158;2023-10-08T17:28:48;3.35;;;1.80;;
67571;SDS011;54397;47.506;19.158;2023-10-08T17:32:10;3.60;;;2.03;;
67571;SDS011;54397;47.506;19.158;2023-10-08T17:35:34;5.75;;;2.35;;
67571;SDS011;54397;47.506;19.158;2023-10-08T17:39:02;5.88;;;3.25;;
67571;SDS011;54397;47.506;19.158;2023-10-08T17:42:31;4.10;;;2.67;;
67571;SDS011;54397;47.506;19.158;2023-10-08T17:45:52;4.47;;;1.70;;
67571;SDS011;54397;47.506;19.158;2023-10-08T17:49:16;3.25;;;1.83;;
67571;SDS011;54397;47.506;19.158;2023-10-08T17:52:38;5.32;;;1.80;;
67571;SDS011;54397;47.506;19.158;2023-10-08T17:56:02;2.65;;;1.60;;
67571;SDS011;54397;47.506;19.158;2023-10-08T17:59:29;6.38;;;1.80;;
67571;SDS011;54397;47.506;19.158;2023-10-08T18:02:54;4.35;;;1.73;;
67571;SDS011;54397;47.506;19.158;2023-10-08T18:06:18;6.70;;;1.90;;
67571;SDS011;54397;47.506;19.158;2023-10-08T18:09:40;3.30;;;1.70;;
67571;SDS011;54397;47.506;19.158;2023-10-08T18:13:05;5.20;;;1.75;;
67571;SDS011;54397;47.506;19.158;2023-10-08T18:16:29;2.88;;;1.77;;
67571;SDS011;54397;47.506;19.158;2023-10-08T18:19:52;8.63;;;1.90;;
67571;SDS011;54397;47.506;19.158;2023-10-08T18:23:13;5.75;;;2.20;;
67571;SDS011;54397;47.506;19.158;2023-10-08T18:26:37;7.25;;;2.30;;
67571;SDS011;54397;47.506;19.158;2023-10-08T18:30:09;1.77;;;1.52;;
67571;SDS011;54397;47.506;19.158;2023-10-08T18:33:33;2.90;;;1.63;;
67571;SDS011;54397;47.506;19.158;2023-10-08T18:36:56;3.67;;;1.60;;
67571;SDS011;54397;47.506;19.158;2023-10-08T18:40:24;5.95;;;3.80;;
67571;SDS011;54397;47.506;19.158;2023-10-08T18:43:49;6.43;;;2.30;;
67571;SDS011;54397;47.506;19.158;2023-10-08T18:47:11;3.95;;;1.80;;
67571;SDS011;54397;47.506;19.158;2023-10-08T18:50:37;3.05;;;2.08;;
67571;SDS011;54397;47.506;19.158;2023-10-08T18:54:03;4.00;;;2.03;;
67571;SDS011;54397;47.506;19.158;2023-10-08T18:57:27;5.15;;;1.92;;
67571;SDS011;54397;47.506;19.158;2023-10-08T19:00:49;5.32;;;1.58;;
67571;SDS011;54397;47.506;19.158;2023-10-08T19:04:12;2.80;;;2.03;;
67571;SDS011;54397;47.506;19.158;2023-10-08T19:07:35;4.25;;;1.75;;
67571;SDS011;54397;47.506;19.158;2023-10-08T19:10:59;6.43;;;1.80;;
67571;SDS011;54397;47.506;19.158;2023-10-08T19:14:22;5.68;;;1.90;;
67571;SDS011;54397;47.506;19.158;2023-10-08T19:17:44;2.40;;;1.50;;
67571;SDS011;54397;47.506;19.158;2023-10-08T19:21:06;3.88;;;1.77;;
67571;SDS011;54397;47.506;19.158;2023-10-08T19:24:30;3.83;;;1.73;;
67571;SDS011;54397;47.506;19.158;2023-10-08T19:32:29;2.78;;;1.60;;
67571;SDS011;54397;47.506;19.158;2023-10-08T19:35:55;3.42;;;2.00;;
67571;SDS011;54397;47.506;19.158;2023-10-08T19:39:20;3.53;;;1.70;;
67571;SDS011;54397;47.506;19.158;2023-10-08T19:42:42;3.03;;;1.70;;
67571;SDS011;54397;47.506;19.158;2023-10-08T19:46:09;3.30;;;1.40;;
67571;SDS011;54397;47.506;19.158;2023-10-08T19:49:45;1.85;;;1.27;;
67571;SDS011;54397;47.506;19.158;2023-10-08T19:53:07;6.30;;;1.80;;
67571;SDS011;54397;47.506;19.158;2023-10-08T19:56:35;1.50;;;1.25;;
67571;SDS011;54397;47.506;19.158;2023-10-08T19:59:59;2.03;;;1.65;;
67571;SDS011;54397;47.506;19.158;2023-10-08T20:03:20;1.67;;;1.30;;
67571;SDS011;54397;47.506;19.158;2023-10-08T20:06:45;2.78;;;1.50;;
67571;SDS011;54397;47.506;19.158;2023-10-08T20:10:07;3.88;;;1.50;;
67571;SDS011;54397;47.506;19.158;2023-10-08T20:13:36;3.58;;;1.60;;
67571;SDS011;54397;47.506;19.158;2023-10-08T20:17:01;3.42;;;1.50;;
67571;SDS011;54397;47.506;19.158;2023-10-08T20:20:30;2.03;;;1.20;;
67571;SDS011;54397;47.506;19.158;2023-10-08T20:23:51;4.90;;;1.45;;
67571;SDS011;54397;47.506;19.158;2023-10-08T20:27:15;6.45;;;1.60;;
67571;SDS011;54397;47.506;19.158;2023-10-08T20:30:43;2.58;;;1.50;;
67571;SDS011;54397;47.506;19.158;2023-10-08T20:34:07;3.30;;;1.38;;
67571;SDS011;54397;47.506;19.158;2023-10-08T20:37:30;1.75;;;1.38;;
67571;SDS011;54397;47.506;19.158;2023-10-08T20:40:52;2.28;;;1.30;;